Time;durP1;ratioP1;P1;durP2;ratioP2;P2;SDS_P1;SDS_P2;PMS_P1;PMS_P2;Temp;Humidity;BMP_temperature;BMP_pressure;BME280_temperature;BME280_humidity;BME280_pressure;Samples;Min_cycle;Max_cycle;Signal;HPM_P1;HPM_P2
2023/03/30 00:02:21;;;;;;;;;;;;;;;15.25;42.88;100349.16;4974300;28;97970;-67
2023/03/30 00:04:48;;;;;;;;;;;;;;;15.23;42.82;100353.00;4976377;28;98474;-67
2023/03/30 00:07:14;;;;;;;;;;;;;;;15.23;42.89;100354.91;4974797;28;121644;-63
2023/03/30 00:09:45;;;;;;;;;;;;;;;15.22;42.79;100356.03;4970119;28;103411;-63
2023/03/30 00:12:12;;;;;;;;;;;;;;;15.21;42.79;100349.78;4967516;28;98197;-66
2023/03/30 00:14:40;;;;;;;;;;;;;;;15.22;42.68;100331.59;4974333;28;99041;-63
2023/03/30 00:17:07;;;;;;;;;;;;;;;15.19;42.63;100275.97;4972882;28;98910;-66
2023/03/30 00:19:36;;;;;;;;;;;;;;;15.17;42.77;100215.75;4972971;28;98197;-67
2023/03/30 00:22:03;;;;;;;;;;;;;;;15.17;42.60;100187.81;4972294;28;98093;-67
2023/03/30 00:24:29;;;;;;;;;;;;;;;15.17;42.56;100206.81;4971160;28;126809;-63
2023/03/30 00:26:55;;;;;;;;;;;;;;;15.15;42.84;100255.97;4972739;28;99050;-67
2023/03/30 00:29:21;;;;;;;;;;;;;;;15.14;42.72;100284.22;4971362;27;126320;-67
2023/03/30 00:31:47;;;;;;;;;;;;;;;15.13;42.67;100281.78;4968098;28;117096;-67
2023/03/30 00:34:13;;;;;;;;;;;;;;;15.12;42.63;100289.13;4972042;28;127376;-67
2023/03/30 00:36:39;;;;;;;;;;;;;;;15.11;42.73;100279.38;4968635;28;128422;-66
2023/03/30 00:39:05;;;;;;;;;;;;;;;15.11;42.95;100287.53;4972209;28;119646;-67
2023/03/30 00:41:35;;;;;;;;;;;;;;;15.11;42.95;100281.31;4973831;28;98853;-64
2023/03/30 00:44:42;;;;;;;;;;;;;;;15.09;42.80;100276.19;4973393;28;98711;-66
2023/03/30 00:47:08;;;;;;;;;;;;;;;15.10;42.61;100279.69;4972501;28;98197;-63
2023/03/30 00:49:34;;;;;;;;;;;;;;;15.07;42.99;100280.28;4968433;28;126871;-64
2023/03/30 00:52:01;;;;;;;;;;;;;;;15.08;42.70;100281.91;4957441;28;102392;-64
2023/03/30 00:54:27;;;;;;;;;;;;;;;15.06;42.89;100273.28;4955988;28;98362;-64
2023/03/30 00:56:53;;;;;;;;;;;;;;;15.06;42.86;100256.97;4958653;28;128176;-63
2023/03/30 00:59:19;;;;;;;;;;;;;;;15.06;42.88;100251.56;4971990;28;120329;-66
2023/03/30 01:01:49;;;;;;;;;;;;;;;15.05;42.96;100229.03;4956755;28;117757;-66
2023/03/30 01:04:15;;;;;;;;;;;;;;;15.03;42.63;100209.53;4960069;28;98345;-63
2023/03/30 01:06:42;;;;;;;;;;;;;;;15.04;43.06;100216.56;4958505;28;98782;-67
2023/03/30 01:09:08;;;;;;;;;;;;;;;15.03;42.99;100223.09;4959889;28;98826;-64
2023/03/30 01:11:33;;;;;;;;;;;;;;;15.03;42.91;100223.09;4952129;28;116492;-64
2023/03/30 01:14:02;;;;;;;;;;;;;;;15.02;42.87;100198.97;4973798;28;129833;-67
2023/03/30 01:16:34;;;;;;;;;;;;;;;15.02;42.95;100196.25;4973089;28;98053;-64
2023/03/30 01:19:34;;;;;;;;;;;;;;;15.01;42.45;100165.59;4942078;28;97854;-63
2023/03/30 01:22:28;;;;;;;;;;;;;;;15.00;42.94;100182.97;4962954;28;98463;-67
2023/03/30 01:25:13;;;;;;;;;;;;;;;15.01;42.86;100175.63;4972038;28;98834;-67
2023/03/30 01:27:56;;;;;;;;;;;;;;;14.98;42.87;100168.94;4974227;27;99219;-68
2023/03/30 01:30:41;;;;;;;;;;;;;;;15.00;42.67;100171.31;4964243;28;98035;-64
2023/03/30 01:33:36;;;;;;;;;;;;;;;14.98;42.79;100183.28;4967800;27;98465;-67
2023/03/30 01:36:50;;;;;;;;;;;;;;;14.98;43.08;100171.66;4964548;28;128372;-64
2023/03/30 01:39:26;;;;;;;;;;;;;;;14.97;42.92;100178.16;4944452;28;98638;-67
2023/03/30 01:42:04;;;;;;;;;;;;;;;14.97;43.04;100168.13;4962282;28;98649;-64
2023/03/30 01:44:33;;;;;;;;;;;;;;;14.96;42.92;100152.94;4964907;28;97945;-64
2023/03/30 01:47:37;;;;;;;;;;;;;;;14.96;42.94;100141.28;4977124;28;104326;-65
2023/03/30 01:50:15;;;;;;;;;;;;;;;14.96;43.03;100138.56;4975775;28;98593;-67
2023/03/30 01:52:57;;;;;;;;;;;;;;;14.95;42.62;100126.91;4975295;28;99181;-64
2023/03/30 01:55:33;;;;;;;;;;;;;;;14.96;42.53;100136.66;4963213;27;98124;-64
2023/03/30 01:58:09;;;;;;;;;;;;;;;14.95;42.81;100129.63;4959239;28;99217;-67
2023/03/30 02:00:36;;;;;;;;;;;;;;;14.96;42.70;100131.22;4947096;28;98360;-68
2023/03/30 02:03:07;;;;;;;;;;;;;;;14.95;42.88;100118.75;4962439;28;98157;-64
2023/03/30 02:05:33;;;;;;;;;;;;;;;14.93;42.99;100110.13;4943633;28;98008;-64
2023/03/30 02:08:01;;;;;;;;;;;;;;;14.95;42.80;100123.41;4959886;28;126928;-67
2023/03/30 02:10:29;;;;;;;;;;;;;;;14.95;42.96;100117.97;4949749;28;99650;-64
2023/03/30 02:12:56;;;;;;;;;;;;;;;14.96;42.97;100109.50;4961622;28;102328;-64
2023/03/30 02:15:22;;;;;;;;;;;;;;;14.96;42.80;100106.00;4957040;28;99307;-68
2023/03/30 02:17:48;;;;;;;;;;;;;;;14.94;43.11;100110.94;4954863;28;128317;-67
2023/03/30 02:20:16;;;;;;;;;;;;;;;14.95;43.00;100107.91;4959300;28;98590;-67
2023/03/30 02:22:42;;;;;;;;;;;;;;;14.95;42.66;100090.84;4962605;27;99181;-68
2023/03/30 02:25:08;;;;;;;;;;;;;;;14.95;42.84;100098.97;4955410;28;115357;-67
2023/03/30 02:27:36;;;;;;;;;;;;;;;14.95;42.76;100091.63;4962641;28;98221;-64
2023/03/30 02:30:03;;;;;;;;;;;;;;;14.95;42.97;100091.63;4971965;27;100183;-68
2023/03/30 02:32:52;;;;;;;;;;;;;;;14.96;42.88;100093.22;4971960;28;126285;-64
2023/03/30 02:35:26;;;;;;;;;;;;;;;14.97;42.99;100091.31;4976611;28;98062;-63
2023/03/30 02:38:13;;;;;;;;;;;;;;;14.96;42.83;100076.94;4941817;28;125553;-68
2023/03/30 02:41:00;;;;;;;;;;;;;;;14.97;42.86;100073.16;4974412;28;98404;-68
2023/03/30 02:44:02;;;;;;;;;;;;;;;14.96;42.74;100082.38;4973783;28;98769;-65
2023/03/30 02:47:01;;;;;;;;;;;;;;;14.95;42.98;100099.78;4960839;28;97875;-64
2023/03/30 02:49:52;;;;;;;;;;;;;;;14.96;43.25;100092.44;4962637;28;122528;-67
2023/03/30 02:52:49;;;;;;;;;;;;;;;14.95;42.83;100082.69;4960414;28;98557;-67
2023/03/30 02:55:18;;;;;;;;;;;;;;;14.95;43.07;100079.97;4975204;27;98094;-64
2023/03/30 02:58:02;;;;;;;;;;;;;;;14.95;42.77;100071.84;4962086;28;98142;-68
2023/03/30 03:01:05;;;;;;;;;;;;;;;14.94;42.82;100062.09;4975806;28;98564;-68
2023/03/30 03:03:36;;;;;;;;;;;;;;;14.93;42.85;100061.28;4919231;28;98562;-64
2023/03/30 03:06:02;;;;;;;;;;;;;;;14.97;43.16;100050.59;4933843;28;98744;-64
2023/03/30 03:08:35;;;;;;;;;;;;;;;15.03;43.01;100041.25;4958835;28;98113;-67
2023/03/30 03:11:01;;;;;;;;;;;;;;;15.11;42.80;100024.22;4973152;28;110121;-64
2023/03/30 03:13:27;;;;;;;;;;;;;;;15.17;42.96;100011.34;4971458;28;128217;-67
2023/03/30 03:15:55;;;;;;;;;;;;;;;15.21;43.04;100002.28;4971788;28;128232;-68
2023/03/30 03:18:22;;;;;;;;;;;;;;;15.26;42.64;99998.63;4972875;28;98033;-65
2023/03/30 03:20:48;;;;;;;;;;;;;;;15.30;42.97;99998.81;4975370;28;117447;-67
2023/03/30 03:23:14;;;;;;;;;;;;;;;15.32;42.75;100005.53;4973655;28;98270;-68
2023/03/30 03:25:40;;;;;;;;;;;;;;;15.35;42.93;100009.53;4973153;28;98822;-64
2023/03/30 03:28:06;;;;;;;;;;;;;;;15.36;42.88;100009.22;4972807;27;116731;-67
2023/03/30 03:30:32;;;;;;;;;;;;;;;15.38;42.81;99998.88;4973131;28;109509;-67
2023/03/30 03:32:58;;;;;;;;;;;;;;;15.39;43.01;99988.78;4974015;28;128593;-67
2023/03/30 03:35:24;;;;;;;;;;;;;;;15.41;42.90;99981.94;4970695;28;109907;-64
2023/03/30 03:37:50;;;;;;;;;;;;;;;15.42;43.06;99980.03;4947628;28;116776;-64
2023/03/30 03:40:16;;;;;;;;;;;;;;;15.42;43.04;99978.13;4948635;28;128982;-67
2023/03/30 03:42:41;;;;;;;;;;;;;;;15.43;42.97;99977.00;4970521;28;128224;-64
2023/03/30 03:45:08;;;;;;;;;;;;;;;15.42;43.03;99980.03;4972375;28;126382;-64
2023/03/30 03:47:34;;;;;;;;;;;;;;;15.42;43.22;99991.69;4960342;28;98095;-65
2023/03/30 03:50:02;;;;;;;;;;;;;;;15.41;43.13;99979.25;4971616;28;120663;-64
2023/03/30 03:52:30;;;;;;;;;;;;;;;15.42;43.14;99982.75;4976288;27;98478;-65
2023/03/30 03:54:55;;;;;;;;;;;;;;;15.41;42.90;99976.53;4973162;28;98495;-64
2023/03/30 03:57:22;;;;;;;;;;;;;;;15.39;43.30;99970.59;4973514;28;116400;-64
2023/03/30 03:59:49;;;;;;;;;;;;;;;15.40;43.04;99969.47;4973529;28;98932;-65
2023/03/30 04:02:15;;;;;;;;;;;;;;;15.39;43.33;99972.50;4972948;28;98626;-68
2023/03/30 04:04:40;;;;;;;;;;;;;;;15.37;42.95;99972.81;4974164;28;98129;-65
2023/03/30 04:07:06;;;;;;;;;;;;;;;15.38;43.07;99984.47;4973593;28;117703;-64
2023/03/30 04:09:32;;;;;;;;;;;;;;;15.34;42.96;99981.59;4974254;28;127734;-64
2023/03/30 04:11:58;;;;;;;;;;;;;;;15.35;42.83;99971.53;4954418;28;128104;-65
2023/03/30 04:14:24;;;;;;;;;;;;;;;15.34;43.12;99961.78;4973112;28;126498;-64
2023/03/30 04:16:50;;;;;;;;;;;;;;;15.30;43.04;99945.31;4954814;28;117282;-67
2023/03/30 04:19:16;;;;;;;;;;;;;;;15.29;42.92;99948.31;4972884;28;127364;-68
2023/03/30 04:21:45;;;;;;;;;;;;;;;15.29;43.08;99953.75;4972114;28;98641;-68
2023/03/30 04:24:12;;;;;;;;;;;;;;;15.28;43.01;99961.09;4959344;28;98339;-67
2023/03/30 04:26:40;;;;;;;;;;;;;;;15.26;43.22;99960.63;4942218;28;100964;-65
2023/03/30 04:29:09;;;;;;;;;;;;;;;15.25;43.15;99955.47;4975049;27;98243;-65
2023/03/30 04:31:37;;;;;;;;;;;;;;;15.24;43.15;99957.41;4974815;28;98708;-68
2023/03/30 04:34:03;;;;;;;;;;;;;;;15.23;42.95;99958.50;4971181;28;97981;-65
2023/03/30 04:36:29;;;;;;;;;;;;;;;15.21;43.10;99956.13;4969325;28;98402;-64
2023/03/30 04:38:59;;;;;;;;;;;;;;;15.21;42.99;99952.63;4966501;28;98353;-68
2023/03/30 04:41:32;;;;;;;;;;;;;;;15.19;43.18;99961.03;4971171;28;98948;-68
2023/03/30 04:43:59;;;;;;;;;;;;;;;15.19;42.91;99962.97;4955927;28;98789;-65
2023/03/30 04:46:25;;;;;;;;;;;;;;;15.18;43.18;99969.50;4970960;27;98020;-65
2023/03/30 04:48:51;;;;;;;;;;;;;;;15.17;43.14;99981.50;4971034;28;127705;-65
2023/03/30 04:51:17;;;;;;;;;;;;;;;15.16;43.05;99974.44;4974460;27;127863;-65
2023/03/30 04:53:43;;;;;;;;;;;;;;;15.16;43.26;99975.22;4972003;28;126596;-65
2023/03/30 04:56:10;;;;;;;;;;;;;;;15.15;43.09;99970.94;4971337;28;116102;-65
2023/03/30 04:58:36;;;;;;;;;;;;;;;15.16;43.04;99956.22;4972405;28;98778;-65
2023/03/30 05:01:02;;;;;;;;;;;;;;;15.16;43.04;99956.22;4974037;28;101636;-64
2023/03/30 05:03:28;;;;;;;;;;;;;;;15.17;43.15;99957.06;4970853;28;98027;-65
2023/03/30 05:05:54;;;;;;;;;;;;;;;15.17;43.21;99960.56;4960268;28;98520;-67
2023/03/30 05:08:20;;;;;;;;;;;;;;;15.18;43.10;99951.31;4974279;28;101156;-65
2023/03/30 05:10:46;;;;;;;;;;;;;;;15.19;42.91;99947.47;4972772;28;126455;-64
2023/03/30 05:13:12;;;;;;;;;;;;;;;15.20;42.88;99949.06;4974097;28;127356;-64
2023/03/30 05:15:38;;;;;;;;;;;;;;;15.23;42.88;99944.94;4976970;28;117010;-67
2023/03/30 05:18:04;;;;;;;;;;;;;;;15.26;42.91;99943.53;4964079;28;98167;-68
2023/03/30 05:20:30;;;;;;;;;;;;;;;15.28;42.85;99952.94;4976326;28;98939;-68
2023/03/30 05:22:56;;;;;;;;;;;;;;;15.31;43.20;99951.53;4972977;28;126238;-68
2023/03/30 05:25:22;;;;;;;;;;;;;;;15.33;42.76;99946.59;4975528;28;98048;-64
2023/03/30 05:27:48;;;;;;;;;;;;;;;15.33;43.06;99930.31;4975930;28;127537;-65
2023/03/30 05:30:14;;;;;;;;;;;;;;;15.33;42.82;99941.97;4959121;28;98704;-65
2023/03/30 05:32:40;;;;;;;;;;;;;;;15.33;43.01;99936.53;4958502;28;97871;-68
2023/03/30 05:35:06;;;;;;;;;;;;;;;15.34;42.84;99930.00;4960021;28;98043;-64
2023/03/30 05:37:32;;;;;;;;;;;;;;;15.34;42.63;99921.84;4974841;28;129130;-68
2023/03/30 05:39:58;;;;;;;;;;;;;;;15.34;42.84;99919.13;4974753;28;110027;-65
2023/03/30 05:42:24;;;;;;;;;;;;;;;15.34;42.93;99911.00;4975461;28;127253;-68
2023/03/30 05:44:50;;;;;;;;;;;;;;;15.36;43.20;99919.59;4975947;28;99245;-65
2023/03/30 05:47:16;;;;;;;;;;;;;;;15.36;42.91;99905.22;4973026;28;119587;-68
2023/03/30 05:49:42;;;;;;;;;;;;;;;15.38;42.87;99908.44;4976955;28;97925;-68
2023/03/30 05:52:08;;;;;;;;;;;;;;;15.39;42.86;99913.56;4976185;28;125417;-64
2023/03/30 05:54:34;;;;;;;;;;;;;;;15.42;42.81;99910.22;4975877;28;97848;-68
2023/03/30 05:57:00;;;;;;;;;;;;;;;15.51;42.78;99909.47;4930265;28;98266;-68
2023/03/30 05:59:26;;;;;;;;;;;;;;;15.59;42.75;99900.53;4974332;27;100562;-65
2023/03/30 06:01:53;;;;;;;;;;;;;;;15.63;42.72;99902.31;4974185;28;98128;-65
2023/03/30 06:04:18;;;;;;;;;;;;;;;15.67;42.80;99892.44;4975216;28;97967;-68
2023/03/30 06:06:45;;;;;;;;;;;;;;;15.72;42.80;99880.66;4970571;28;124897;-65
2023/03/30 06:09:11;;;;;;;;;;;;;;;15.83;42.51;99881.16;4972129;28;98132;-68
2023/03/30 06:11:36;;;;;;;;;;;;;;;15.89;42.46;99886.13;4973435;28;98649;-68
2023/03/30 06:14:02;;;;;;;;;;;;;;;15.92;42.72;99890.13;4960763;28;113626;-65
2023/03/30 06:16:28;;;;;;;;;;;;;;;15.97;42.42;99881.81;4975997;28;127349;-65
2023/03/30 06:18:54;;;;;;;;;;;;;;;16.06;42.59;99890.00;4975748;28;101174;-67
2023/03/30 06:21:20;;;;;;;;;;;;;;;16.15;42.37;99907.94;4978023;28;128349;-68
2023/03/30 06:23:46;;;;;;;;;;;;;;;16.36;42.25;99913.53;4972582;28;117550;-68
2023/03/30 06:26:12;;;;;;;;;;;;;;;16.59;42.11;99907.94;4973824;28;129031;-68
2023/03/30 06:28:38;;;;;;;;;;;;;;;16.81;41.94;99910.50;4977394;28;98988;-65
2023/03/30 06:31:08;;;;;;;;;;;;;;;17.06;41.65;99906.16;4960591;28;128634;-68
2023/03/30 06:33:34;;;;;;;;;;;;;;;17.25;41.62;99900.34;4960969;28;98671;-68
2023/03/30 06:36:00;;;;;;;;;;;;;;;17.40;41.50;99891.63;4976908;28;99202;-68
2023/03/30 06:38:26;;;;;;;;;;;;;;;17.47;41.69;99888.41;4975448;28;106555;-68
2023/03/30 06:40:52;;;;;;;;;;;;;;;17.48;41.80;99886.47;4975938;27;98311;-68
2023/03/30 06:43:20;;;;;;;;;;;;;;;17.49;41.98;99880.72;4974354;28;118526;-65
2023/03/30 06:45:50;;;;;;;;;;;;;;;17.54;41.84;99879.72;4973434;28;98389;-65
2023/03/30 06:48:18;;;;;;;;;;;;;;;17.63;41.82;99877.75;4974360;28;99049;-68
2023/03/30 06:50:48;;;;;;;;;;;;;;;17.67;42.05;99867.78;4974867;28;97856;-65
2023/03/30 06:53:14;;;;;;;;;;;;;;;17.70;41.67;99864.41;4973321;28;115294;-66
2023/03/30 06:55:41;;;;;;;;;;;;;;;17.70;41.96;99853.50;4960184;28;98311;-65
2023/03/30 06:58:07;;;;;;;;;;;;;;;17.66;42.23;99849.84;4973552;28;99683;-68
2023/03/30 07:00:33;;;;;;;;;;;;;;;17.64;42.28;99850.19;4971251;28;124342;-68
2023/03/30 07:02:59;;;;;;;;;;;;;;;17.66;42.27;99845.19;4973762;28;97903;-65
2023/03/30 07:05:27;;;;;;;;;;;;;;;17.62;42.32;99836.06;4969840;28;128137;-68
2023/03/30 07:07:53;;;;;;;;;;;;;;;17.57;42.26;99830.03;4972500;28;98790;-65
2023/03/30 07:10:19;;;;;;;;;;;;;;;17.62;42.36;99840.72;4974640;28;99844;-65
2023/03/30 07:12:45;;;;;;;;;;;;;;;17.70;42.17;99839.09;4974125;27;111388;-65
2023/03/30 07:15:12;;;;;;;;;;;;;;;17.79;42.12;99837.13;4974939;28;98883;-69
2023/03/30 07:17:38;;;;;;;;;;;;;;;17.85;41.88;99822.97;4973470;28;98352;-68
2023/03/30 07:20:05;;;;;;;;;;;;;;;17.94;42.12;99824.84;4971537;28;98239;-68
2023/03/30 07:22:31;;;;;;;;;;;;;;;18.03;41.94;99823.63;4975283;28;97761;-68
2023/03/30 07:24:57;;;;;;;;;;;;;;;18.24;41.81;99817.41;4971608;28;128013;-68
2023/03/30 07:27:23;;;;;;;;;;;;;;;18.48;41.53;99822.16;4971371;28;98317;-65
2023/03/30 07:29:50;;;;;;;;;;;;;;;18.51;41.86;99821.47;4973663;27;97852;-65
2023/03/30 07:32:16;;;;;;;;;;;;;;;18.42;42.08;99826.22;4976078;28;97954;-68
2023/03/30 07:34:42;;;;;;;;;;;;;;;18.35;41.94;99810.38;4976587;28;98094;-68
2023/03/30 07:37:08;;;;;;;;;;;;;;;18.34;42.16;99815.03;4957505;28;122956;-69
2023/03/30 07:39:35;;;;;;;;;;;;;;;18.39;42.15;99808.56;4960307;28;98347;-65
2023/03/30 07:42:01;;;;;;;;;;;;;;;18.43;42.05;99806.81;4960666;28;98023;-65
2023/03/30 07:44:30;;;;;;;;;;;;;;;18.69;41.73;99811.19;4973461;28;122198;-68
2023/03/30 07:46:57;;;;;;;;;;;;;;;19.26;41.09;99804.94;4962737;28;98231;-65
2023/03/30 07:49:23;;;;;;;;;;;;;;;19.70;40.85;99795.03;4958396;28;120594;-65
2023/03/30 07:51:49;;;;;;;;;;;;;;;20.13;40.50;99790.81;4959934;28;116965;-69
2023/03/30 07:54:15;;;;;;;;;;;;;;;20.54;40.28;99784.16;4973317;28;99174;-65
2023/03/30 07:56:41;;;;;;;;;;;;;;;20.98;40.05;99783.31;4945601;28;127741;-69
2023/03/30 07:59:07;;;;;;;;;;;;;;;21.46;39.73;99776.69;4955279;28;98313;-69
2023/03/30 08:01:33;;;;;;;;;;;;;;;22.01;39.54;99774.75;4974439;28;116284;-69
2023/03/30 08:04:00;;;;;;;;;;;;;;;22.58;39.14;99780.56;4971863;28;98534;-66
2023/03/30 08:06:26;;;;;;;;;;;;;;;23.21;38.82;99780.09;4954022;28;127652;-66
2023/03/30 08:08:52;;;;;;;;;;;;;;;23.88;38.25;99768.53;4972975;28;126682;-66
2023/03/30 08:11:18;;;;;;;;;;;;;;;24.13;38.56;99774.34;4969731;28;115863;-65
2023/03/30 08:13:44;;;;;;;;;;;;;;;24.16;39.01;99768.06;4971249;28;128245;-66
2023/03/30 08:16:10;;;;;;;;;;;;;;;24.57;38.89;99764.63;4959103;28;102214;-69
2023/03/30 08:18:36;;;;;;;;;;;;;;;24.98;38.44;99770.88;4972281;28;103131;-66
2023/03/30 08:21:02;;;;;;;;;;;;;;;25.27;38.63;99771.94;4957113;28;97956;-66
2023/03/30 08:23:28;;;;;;;;;;;;;;;24.89;39.45;99773.97;4969150;28;128172;-66
2023/03/30 08:25:58;;;;;;;;;;;;;;;24.65;39.89;99763.53;4968875;28;98724;-69
2023/03/30 08:28:23;;;;;;;;;;;;;;;25.80;38.64;99765.97;4972989;28;124747;-66
2023/03/30 08:30:49;;;;;;;;;;;;;;;25.73;38.96;99763.16;4969671;28;116581;-66
2023/03/30 08:33:15;;;;;;;;;;;;;;;25.26;39.59;99769.56;4971612;27;127741;-66
2023/03/30 08:35:46;;;;;;;;;;;;;;;25.18;39.96;99772.25;4970854;28;101406;-66
2023/03/30 08:38:16;;;;;;;;;;;;;;;26.22;38.79;99766.56;4957265;28;98055;-66
2023/03/30 08:40:45;;;;;;;;;;;;;;;26.28;38.77;99773.25;4972621;28;98936;-70
2023/03/30 08:43:49;;;;;;;;;;;;;;;26.32;39.19;99769.31;4960779;28;108888;-66
2023/03/30 08:46:15;;;;;;;;;;;;;;;26.12;39.49;99766.09;4969515;28;98808;-66
2023/03/30 08:48:41;;;;;;;;;;;;;;;25.57;40.20;99768.19;4957044;28;98581;-70
2023/03/30 08:51:17;;;;;;;;;;;;;;;25.15;40.69;99764.78;4959784;28;97784;-69
2023/03/30 08:53:43;;;;;;;;;;;;;;;24.77;41.08;99774.25;4958125;28;98347;-69
2023/03/30 08:56:12;;;;;;;;;;;;;;;24.40;41.33;99772.31;4972873;28;97806;-69
2023/03/30 08:58:44;;;;;;;;;;;;;;;24.09;41.68;99778.19;4960899;28;98490;-66
2023/03/30 09:01:33;;;;;;;;;;;;;;;23.74;41.88;99787.59;4975074;28;98205;-66
2023/03/30 09:04:11;;;;;;;;;;;;;;;23.46;42.06;99788.75;4956871;28;98769;-66
2023/03/30 09:06:49;;;;;;;;;;;;;;;23.34;41.62;99788.94;4971989;28;98783;-69
2023/03/30 09:09:17;;;;;;;;;;;;;;;23.12;42.11;99787.81;4969873;27;98724;-66
2023/03/30 09:11:43;;;;;;;;;;;;;;;22.85;41.96;99791.66;4957610;28;112640;-66
2023/03/30 09:14:22;;;;;;;;;;;;;;;22.56;42.37;99796.63;4971727;28;99058;-66
2023/03/30 09:16:51;;;;;;;;;;;;;;;22.27;42.63;99809.78;4960990;28;125994;-68
2023/03/30 09:19:26;;;;;;;;;;;;;;;22.03;42.52;99810.84;4958048;28;98716;-69
2023/03/30 09:21:53;;;;;;;;;;;;;;;21.85;42.76;99815.16;4959674;28;97852;-66
2023/03/30 09:24:25;;;;;;;;;;;;;;;21.73;42.56;99807.84;4936279;28;127603;-67
2023/03/30 09:27:04;;;;;;;;;;;;;;;21.71;42.53;99809.34;4957690;28;98194;-69
2023/03/30 09:29:32;;;;;;;;;;;;;;;21.71;42.43;99806.63;4968576;27;123377;-69
2023/03/30 09:32:16;;;;;;;;;;;;;;;21.71;42.36;99806.63;4941128;27;98022;-68
2023/03/30 09:34:46;;;;;;;;;;;;;;;21.66;42.30;99809.66;4969583;27;124624;-66
2023/03/30 09:37:17;;;;;;;;;;;;;;;21.65;42.26;99808.03;4974695;28;98468;-69
2023/03/30 09:39:44;;;;;;;;;;;;;;;21.65;42.34;99797.84;4973217;28;99446;-66
2023/03/30 09:42:35;;;;;;;;;;;;;;;21.68;42.22;99810.06;4958786;28;99699;-66
2023/03/30 09:45:16;;;;;;;;;;;;;;;21.69;42.21;99803.41;4975595;28;97945;-68
2023/03/30 09:47:42;;;;;;;;;;;;;;;21.60;42.42;99798.13;4960147;28;128879;-66
2023/03/30 09:50:31;;;;;;;;;;;;;;;21.55;42.15;99806.66;4961464;28;98130;-65
2023/03/30 09:53:02;;;;;;;;;;;;;;;21.51;42.17;99803.81;4963235;28;99725;-68
2023/03/30 09:55:30;;;;;;;;;;;;;;;21.51;42.27;99814.00;4973797;28;97815;-66
2023/03/30 09:58:19;;;;;;;;;;;;;;;21.51;42.28;99808.50;4974544;28;98403;-66
2023/03/30 10:00:46;;;;;;;;;;;;;;;21.47;42.17;99815.88;4974874;28;100606;-69
2023/03/30 10:03:19;;;;;;;;;;;;;;;21.43;42.16;99813.03;4962575;28;110434;-67
2023/03/30 10:05:46;;;;;;;;;;;;;;;21.41;42.37;99818.06;4976091;28;99733;-68
2023/03/30 10:08:19;;;;;;;;;;;;;;;21.42;42.16;99813.38;4938791;28;128418;-66
2023/03/30 10:10:46;;;;;;;;;;;;;;;21.41;42.13;99812.59;4962025;28;98847;-69
2023/03/30 10:13:14;;;;;;;;;;;;;;;21.40;42.14;99811.00;4957414;28;98234;-69
2023/03/30 10:15:43;;;;;;;;;;;;;;;21.39;42.22;99816.84;4959524;28;98773;-69
2023/03/30 10:18:22;;;;;;;;;;;;;;;21.38;42.08;99829.75;4957134;28;98536;-66
2023/03/30 10:20:53;;;;;;;;;;;;;;;21.33;42.17;99833.53;4960750;28;97898;-66
2023/03/30 10:23:21;;;;;;;;;;;;;;;21.26;42.26;99827.88;4971212;28;97978;-69
2023/03/30 10:25:49;;;;;;;;;;;;;;;21.21;42.28;99841.81;4974840;28;99319;-66
2023/03/30 10:28:26;;;;;;;;;;;;;;;21.15;42.39;99840.53;4975845;27;99704;-69
2023/03/30 10:31:00;;;;;;;;;;;;;;;21.12;42.38;99856.88;4973054;28;107108;-66
2023/03/30 10:33:27;;;;;;;;;;;;;;;21.05;42.40;99850.03;4945415;27;114611;-65
2023/03/30 10:35:54;;;;;;;;;;;;;;;21.01;42.49;99840.94;4961325;28;99177;-69
2023/03/30 10:38:19;;;;;;;;;;;;;;;20.98;42.47;99851.81;4962520;28;98539;-65
2023/03/30 10:40:46;;;;;;;;;;;;;;;20.95;42.41;99852.53;4943652;28;127135;-68
2023/03/30 10:43:13;;;;;;;;;;;;;;;20.93;42.37;99852.84;4959702;28;98033;-65
2023/03/30 10:45:53;;;;;;;;;;;;;;;20.91;42.45;99854.38;4957376;28;99035;-68
2023/03/30 10:48:52;;;;;;;;;;;;;;;20.84;42.42;99844.81;4945370;28;122964;-68
2023/03/30 10:51:40;;;;;;;;;;;;;;;20.80;42.40;99851.34;4961570;28;127921;-68
2023/03/30 10:54:42;;;;;;;;;;;;;;;20.78;42.44;99848.16;4974102;28;97920;-68
2023/03/30 10:57:12;;;;;;;;;;;;;;;20.76;42.39;99826.59;4974706;28;98401;-68
2023/03/30 11:00:03;;;;;;;;;;;;;;;20.78;42.37;99834.47;4972732;28;98877;-64
2023/03/30 11:02:34;;;;;;;;;;;;;;;20.84;42.31;99828.38;4960159;27;98116;-68
2023/03/30 11:05:06;;;;;;;;;;;;;;;20.90;42.14;99823.44;4974889;28;97902;-68
2023/03/30 11:07:39;;;;;;;;;;;;;;;20.94;42.13;99832.53;4973103;28;99148;-65
2023/03/30 11:10:26;;;;;;;;;;;;;;;20.94;42.22;99837.22;4962913;28;119281;-68
2023/03/30 11:12:55;;;;;;;;;;;;;;;20.97;42.22;99831.03;4960980;28;98052;-64
2023/03/30 11:15:42;;;;;;;;;;;;;;;20.94;42.22;99834.47;4941933;28;98147;-68
2023/03/30 11:18:33;;;;;;;;;;;;;;;20.89;42.25;99835.53;4959593;28;97971;-65
2023/03/30 11:21:01;;;;;;;;;;;;;;;20.78;42.53;99835.25;4963082;28;98991;-68
2023/03/30 11:23:58;;;;;;;;;;;;;;;20.73;42.44;99829.25;4976216;27;98284;-68
2023/03/30 11:26:58;;;;;;;;;;;;;;;20.70;42.57;99829.94;4963020;28;97967;-65
2023/03/30 11:30:09;;;;;;;;;;;;;;;20.70;42.33;99827.19;4941347;28;98434;-68
2023/03/30 11:32:45;;;;;;;;;;;;;;;20.80;42.22;99824.75;4968111;27;98390;-64
2023/03/30 11:35:44;;;;;;;;;;;;;;;20.95;41.98;99823.19;4971245;28;99387;-64
2023/03/30 11:38:47;;;;;;;;;;;;;;;20.95;42.17;99833.34;4962460;28;97972;-68
2023/03/30 11:41:19;;;;;;;;;;;;;;;20.88;42.31;99825.72;4885844;28;98928;-68
2023/03/30 11:43:45;;;;;;;;;;;;;;;20.79;42.31;99825.13;4943647;28;121587;-65
2023/03/30 11:46:18;;;;;;;;;;;;;;;20.72;42.46;99822.97;4973803;28;97948;-65
2023/03/30 11:48:51;;;;;;;;;;;;;;;20.68;42.50;99818.56;4960203;28;117078;-68
2023/03/30 11:51:30;;;;;;;;;;;;;;;20.71;42.42;99804.97;4959199;28;98380;-65
2023/03/30 11:54:08;;;;;;;;;;;;;;;20.79;42.32;99804.00;4960422;27;98656;-68
2023/03/30 11:57:13;;;;;;;;;;;;;;;20.87;42.28;99796.75;4972829;28;98235;-68
2023/03/30 11:59:56;;;;;;;;;;;;;;;20.95;42.11;99778.56;4973253;28;98102;-65
2023/03/30 12:02:33;;;;;;;;;;;;;;;21.11;41.97;99771.13;4973673;28;99493;-65
2023/03/30 12:05:20;;;;;;;;;;;;;;;21.41;41.50;99765.97;4970930;28;99151;-65
2023/03/30 12:07:53;;;;;;;;;;;;;;;21.81;41.18;99756.66;4959541;28;97909;-68
2023/03/30 12:10:26;;;;;;;;;;;;;;;22.33;40.85;99751.88;4956151;28;98147;-65
2023/03/30 12:12:54;;;;;;;;;;;;;;;22.51;40.76;99747.50;4957893;28;126243;-65
2023/03/30 12:15:29;;;;;;;;;;;;;;;22.55;40.98;99743.66;4973142;28;98852;-65
2023/03/30 12:18:05;;;;;;;;;;;;;;;22.58;41.16;99741.34;4960391;28;121871;-68
2023/03/30 12:20:46;;;;;;;;;;;;;;;22.43;41.43;99732.84;4945189;28;99164;-68
2023/03/30 12:23:26;;;;;;;;;;;;;;;22.27;41.70;99730.19;4959752;28;127037;-69
2023/03/30 12:26:08;;;;;;;;;;;;;;;22.12;41.69;99720.06;4960156;28;124379;-65
2023/03/30 12:28:55;;;;;;;;;;;;;;;22.02;41.91;99712.44;4956651;28;98015;-69
2023/03/30 12:31:21;;;;;;;;;;;;;;;21.96;42.03;99714.66;4973933;27;98032;-68
2023/03/30 12:33:50;;;;;;;;;;;;;;;21.92;41.93;99707.53;4957006;28;128738;-68
2023/03/30 12:36:32;;;;;;;;;;;;;;;22.04;41.86;99701.88;4971616;28;124242;-65
2023/03/30 12:39:04;;;;;;;;;;;;;;;22.45;41.14;99707.78;4972973;28;98290;-68
2023/03/30 12:41:40;;;;;;;;;;;;;;;22.51;41.32;99698.84;4961984;28;97904;-68
2023/03/30 12:44:18;;;;;;;;;;;;;;;22.57;41.51;99693.09;4974769;28;98136;-69
2023/03/30 12:46:43;;;;;;;;;;;;;;;22.78;41.44;99691.47;4973458;28;98475;-65
2023/03/30 12:49:24;;;;;;;;;;;;;;;22.93;40.99;99678.00;4973065;28;99290;-68
2023/03/30 12:52:22;;;;;;;;;;;;;;;23.15;41.26;99684.63;4973488;28;97937;-69
2023/03/30 12:55:16;;;;;;;;;;;;;;;23.16;41.02;99680.69;4947735;28;98649;-65
2023/03/30 12:57:52;;;;;;;;;;;;;;;23.60;40.47;99682.84;4952272;28;98342;-65
2023/03/30 13:00:52;;;;;;;;;;;;;;;24.41;39.96;99662.97;4960062;28;98138;-69
2023/03/30 13:03:38;;;;;;;;;;;;;;;24.83;39.72;99669.97;4961270;28;98158;-66
2023/03/30 13:06:06;;;;;;;;;;;;;;;24.98;40.01;99657.88;4958958;28;99192;-68